Time;durP1;ratioP1;P1;durP2;ratioP2;P2;SDS_P1;SDS_P2;PMS_P1;PMS_P2;Temp;Humidity;BMP_temperature;BMP_pressure;BME280_temperature;BME280_humidity;BME280_pressure;Samples;Min_cycle;Max_cycle;Signal;HPM_P1;HPM_P2
2021/03/21 00:01:15;;;;;;;11.53;4.57;;;;;;;12.87;43.55;101041.25;4965022;28;20086;-67
2021/03/21 00:03:44;;;;;;;5.13;2.97;;;;;;;12.97;42.83;101046.84;4986361;28;20051;-67
2021/03/21 00:06:14;;;;;;;5.25;3.83;;;;;;;12.87;41.78;101034.81;4987170;28;20038;-68
2021/03/21 00:08:41;;;;;;;6.23;3.30;;;;;;;12.92;41.63;101038.47;4980990;28;20423;-68
2021/03/21 00:11:10;;;;;;;3.78;2.28;;;;;;;12.78;40.49;101026.13;4983103;28;20039;-68
2021/03/21 00:13:39;;;;;;;8.03;3.20;;;;;;;12.96;39.75;101045.19;4982582;28;20503;-66
2021/03/21 00:16:07;;;;;;;3.70;2.50;;;;;;;12.97;38.95;101040.41;4981400;28;20126;-65
2021/03/21 00:18:37;;;;;;;4.17;2.07;;;;;;;13.01;38.06;101047.94;4979841;28;20050;-66
2021/03/21 00:21:10;;;;;;;3.30;2.43;;;;;;;12.97;38.04;101057.22;4980173;28;20468;-65
2021/03/21 00:23:38;;;;;;;3.73;1.67;;;;;;;12.99;37.56;101053.03;4985268;28;20054;-66
2021/03/21 00:26:05;;;;;;;3.03;1.37;;;;;;;13.00;37.57;101054.69;4988014;28;20042;-66
2021/03/21 00:28:37;;;;;;;5.17;2.90;;;;;;;12.86;37.73;101038.75;4979697;28;20411;-66
2021/03/21 00:31:10;;;;;;;5.13;2.23;;;;;;;12.81;37.94;101036.78;4982551;28;20400;-67
2021/03/21 00:33:37;;;;;;;2.27;1.30;;;;;;;12.79;37.63;101058.66;4957419;28;20053;-63
2021/03/21 00:36:07;;;;;;;3.60;2.03;;;;;;;12.86;37.17;101062.03;4987301;28;20464;-74
2021/03/21 00:38:37;;;;;;;2.00;1.48;;;;;;;12.75;36.84;101044.38;4980414;28;20301;-75
2021/03/21 00:41:05;;;;;;;1.65;1.20;;;;;;;12.72;36.24;101056.16;4988743;28;20052;-72
2021/03/21 00:43:43;;;;;;;3.77;1.63;;;;;;;12.77;35.70;101058.94;4981943;28;20511;-68
2021/03/21 00:46:10;;;;;;;2.27;1.67;;;;;;;12.76;35.69;101064.84;4969795;28;20054;-67
2021/03/21 00:48:46;;;;;;;3.30;1.27;;;;;;;12.76;35.45;101056.44;4982862;28;20078;-64
2021/03/21 00:51:16;;;;;;;1.43;1.33;;;;;;;12.69;35.41;101059.53;4984331;28;20423;-65
2021/03/21 00:53:46;;;;;;;2.63;1.52;;;;;;;12.64;35.01;101055.88;4982567;28;20069;-67
2021/03/21 00:56:35;;;;;;;5.80;2.03;;;;;;;12.66;34.75;101062.88;4978254;28;20075;-62
2021/03/21 00:59:02;;;;;;;0.90;0.87;;;;;;;12.55;34.84;101045.25;4983319;28;20046;-57
2021/03/21 01:01:30;;;;;;;1.40;1.10;;;;;;;12.63;34.12;101073.81;4984369;28;20046;-59
2021/03/21 01:03:58;;;;;;;1.10;0.87;;;;;;;12.50;34.11;101058.41;4983258;28;20051;-75
2021/03/21 01:06:24;;;;;;;2.87;1.23;;;;;;;12.62;34.11;101066.53;4970570;28;20051;-68
2021/03/21 01:08:57;;;;;;;1.17;1.07;;;;;;;12.62;33.98;101077.75;4987935;28;20146;-69
2021/03/21 01:11:32;;;;;;;1.97;1.10;;;;;;;12.48;33.63;101055.91;4984694;28;20522;-70
2021/03/21 01:14:03;;;;;;;1.30;1.00;;;;;;;12.71;33.59;101081.66;4970613;28;20159;-71
2021/03/21 01:16:40;;;;;;;1.67;1.07;;;;;;;12.70;33.56;101096.78;4988528;28;20496;-68
2021/03/21 01:19:15;;;;;;;1.97;0.90;;;;;;;12.80;33.28;101091.19;4977013;28;20507;-71
2021/03/21 01:21:44;;;;;;;3.80;1.27;;;;;;;12.77;33.54;101089.78;4982821;28;20078;-70
2021/03/21 01:24:13;;;;;;;3.17;1.23;;;;;;;12.61;33.10;101092.88;4987302;28;20058;-71
2021/03/21 01:26:40;;;;;;;1.47;0.83;;;;;;;12.63;32.95;101104.66;4982605;28;20051;-69
2021/03/21 01:29:07;;;;;;;1.30;1.10;;;;;;;12.50;32.96;101092.03;4976825;28;20046;-71
2021/03/21 01:31:36;;;;;;;2.03;1.43;;;;;;;12.27;33.02;101068.22;4981555;28;20452;-70
2021/03/21 01:34:13;;;;;;;0.97;0.90;;;;;;;12.31;33.04;101091.75;4976448;28;20441;-72
2021/03/21 01:36:40;;;;;;;1.17;1.00;;;;;;;12.38;33.16;101092.31;4985780;28;20047;-70
2021/03/21 01:39:37;;;;;;;4.40;1.77;;;;;;;12.20;32.87;101073.25;4982578;28;20071;-70
2021/03/21 01:42:10;;;;;;;2.30;1.10;;;;;;;12.32;32.94;101080.28;4974895;28;20046;-68
2021/03/21 01:44:37;;;;;;;4.40;1.33;;;;;;;12.31;32.86;101078.59;4980372;28;20384;-70
2021/03/21 01:47:14;;;;;;;;;;;;;;;12.17;32.79;101076.59;4980204;28;20039;-70
2021/03/21 01:49:45;;;;;;;2.23;1.43;;;;;;;12.16;33.08;101069.34;4982104;28;20298;-68
2021/03/21 01:52:28;;;;;;;1.03;1.00;;;;;;;12.24;32.84;101083.63;4980279;28;20105;-67
2021/03/21 01:54:56;;;;;;;1.87;1.27;;;;;;;11.90;32.83;101049.72;4976856;28;20109;-68
2021/03/21 01:57:27;;;;;;;2.92;1.08;;;;;;;12.16;32.86;101080.53;4981262;28;20107;-71
2021/03/21 01:59:54;;;;;;;2.83;1.83;;;;;;;11.92;32.76;101075.47;4981824;28;20407;-71
2021/03/21 02:02:21;;;;;;;0.83;0.77;;;;;;;11.86;33.14;101082.16;4981670;28;20055;-70
2021/03/21 02:04:47;;;;;;;1.33;1.23;;;;;;;11.96;32.93;101070.13;4986198;28;20065;-70
2021/03/21 02:07:20;;;;;;;0.77;0.73;;;;;;;11.77;32.76;101072.59;4973311;28;20046;-69
2021/03/21 02:10:14;;;;;;;1.57;1.13;;;;;;;11.51;32.85;101091.25;4979193;28;20062;-71
2021/03/21 02:13:07;;;;;;;2.07;1.23;;;;;;;11.47;32.79;101079.78;4978800;28;20472;-70
2021/03/21 02:15:56;;;;;;;3.03;1.67;;;;;;;11.57;32.63;101071.41;4984903;28;20132;-72
2021/03/21 02:18:42;;;;;;;1.93;1.10;;;;;;;11.36;32.44;101067.72;4984136;28;20053;-65
2021/03/21 02:21:22;;;;;;;2.30;1.70;;;;;;;11.30;32.29;101079.16;4976848;28;20053;-66
2021/03/21 02:24:07;;;;;;;1.85;1.75;;;;;;;11.22;32.27;101060.94;4981031;28;20057;-66
2021/03/21 02:26:49;;;;;;;1.63;0.83;;;;;;;11.21;32.34;101069.59;4985500;28;20043;-65
2021/03/21 02:29:32;;;;;;;2.70;1.50;;;;;;;11.06;32.10;101065.59;4978078;28;20057;-65
2021/03/21 02:32:14;;;;;;;2.60;1.30;;;;;;;11.04;32.25;101058.59;4983591;28;20042;-64
2021/03/21 02:34:49;;;;;;;3.03;1.57;;;;;;;11.00;32.13;101080.66;4981613;28;20046;-63
2021/03/21 02:37:41;;;;;;;4.27;1.10;;;;;;;10.91;32.02;101069.16;4978860;28;20082;-64
2021/03/21 02:40:12;;;;;;;6.03;1.40;;;;;;;10.99;32.08;101070.59;4979610;28;20047;-64
2021/03/21 02:42:44;;;;;;;1.23;0.90;;;;;;;11.04;31.88;101073.44;4978844;28;20049;-64
2021/03/21 02:45:15;;;;;;;1.37;0.53;;;;;;;11.00;31.72;101063.88;4984066;28;20046;-68
2021/03/21 02:47:44;;;;;;;0.80;0.77;;;;;;;10.77;31.84;101064.31;4975627;28;20038;-67
2021/03/21 02:50:26;;;;;;;3.90;0.93;;;;;;;10.76;31.88;101071.00;4987080;28;20051;-67
2021/03/21 02:52:59;;;;;;;6.03;0.83;;;;;;;10.80;31.79;101052.59;4983167;28;20043;-68
2021/03/21 02:55:35;;;;;;;1.13;0.73;;;;;;;10.76;31.56;101037.50;4987524;28;20043;-66
2021/03/21 02:58:27;;;;;;;0.97;0.60;;;;;;;10.74;31.36;101073.25;4976423;28;20070;-67
2021/03/21 03:01:24;;;;;;;1.13;0.90;;;;;;;10.67;31.25;101053.94;4975125;28;20500;-67
2021/03/21 03:03:59;;;;;;;1.80;0.93;;;;;;;10.64;30.91;101060.06;4966090;28;20050;-67
2021/03/21 03:06:36;;;;;;;0.83;0.70;;;;;;;10.62;30.97;101051.94;4973455;28;20053;-68
2021/03/21 03:09:21;;;;;;;1.97;0.70;;;;;;;10.64;30.68;101076.81;4979811;28;20110;-68
2021/03/21 03:11:56;;;;;;;1.60;1.10;;;;;;;10.54;30.68;101044.06;4970792;28;20141;-68
2021/03/21 03:14:33;;;;;;;0.60;0.60;;;;;;;10.58;30.73;101045.19;4976718;28;20038;-65
2021/03/21 03:17:23;;;;;;;0.87;0.63;;;;;;;10.56;30.38;101077.28;4972152;28;20047;-67
2021/03/21 03:20:08;;;;;;;1.67;1.03;;;;;;;10.60;30.29;101075.66;4978646;28;20046;-69
2021/03/21 03:23:18;;;;;;;0.93;0.80;;;;;;;10.54;30.64;101071.16;4977847;28;20065;-63
2021/03/21 03:26:06;;;;;;;1.00;0.80;;;;;;;10.44;30.61;101083.06;4973901;28;20503;-63
2021/03/21 03:28:58;;;;;;;1.20;0.80;;;;;;;10.51;30.81;101061.34;4979098;28;20517;-64
2021/03/21 03:31:26;;;;;;;0.47;0.47;;;;;;;10.40;30.69;101076.34;4978207;28;20543;-63
2021/03/21 03:33:53;;;;;;;0.40;0.40;;;;;;;10.31;30.74;101063.97;4981378;28;20093;-63
2021/03/21 03:36:23;;;;;;;0.88;0.88;;;;;;;10.28;30.57;101051.38;4980606;28;20503;-61
2021/03/21 03:38:58;;;;;;;0.50;0.50;;;;;;;10.22;30.48;101055.19;4979525;28;20043;-61
2021/03/21 03:41:27;;;;;;;3.77;0.93;;;;;;;10.19;30.68;101084.50;4980133;28;20411;-63
2021/03/21 03:44:14;;;;;;;1.00;0.90;;;;;;;10.07;30.77;101067.09;4984369;28;20078;-62
2021/03/21 03:47:04;;;;;;;2.77;1.00;;;;;;;10.02;30.44;101050.31;4978667;28;20416;-61
2021/03/21 03:49:59;;;;;;;1.80;0.70;;;;;;;10.11;30.73;101079.38;4981429;28;20480;-66
2021/03/21 03:52:47;;;;;;;8.23;0.80;;;;;;;10.10;30.42;101072.13;4978403;28;20300;-66
2021/03/21 03:55:50;;;;;;;1.47;0.60;;;;;;;10.10;30.55;101054.56;4986113;28;20126;-64
2021/03/21 03:58:35;;;;;;;1.30;1.00;;;;;;;10.07;30.57;101072.66;4979672;28;20046;-64
2021/03/21 04:01:04;;;;;;;1.03;0.93;;;;;;;10.11;30.45;101079.38;4980501;28;20435;-64
2021/03/21 04:03:50;;;;;;;0.43;0.43;;;;;;;10.02;30.67;101064.25;4981020;28;20050;-65
2021/03/21 04:06:53;;;;;;;1.73;0.90;;;;;;;9.91;30.63;101062.44;4981708;28;20105;-64
2021/03/21 04:09:35;;;;;;;1.17;0.65;;;;;;;10.14;30.28;101062.13;4981546;28;20052;-64
2021/03/21 04:12:07;;;;;;;1.90;0.60;;;;;;;10.11;30.27;101070.19;4961704;28;20049;-63
2021/03/21 04:14:47;;;;;;;0.50;0.50;;;;;;;10.14;30.25;101094.78;4980506;28;20057;-64
2021/03/21 04:17:35;;;;;;;1.83;0.63;;;;;;;10.09;30.21;101098.38;4975779;28;20066;-64
2021/03/21 04:20:19;;;;;;;1.20;0.57;;;;;;;10.00;30.39;101074.00;4972187;28;20047;-63
2021/03/21 04:23:10;;;;;;;2.90;1.33;;;;;;;9.79;30.72;101084.09;4978506;28;20050;-63
2021/03/21 04:25:52;;;;;;;1.30;0.75;;;;;;;9.91;30.48;101081.97;4975492;28;20069;-64
2021/03/21 04:28:26;;;;;;;0.80;0.50;;;;;;;9.92;30.73;101086.47;4987029;28;20049;-63
2021/03/21 04:30:58;;;;;;;0.77;0.77;;;;;;;9.89;30.75;101103.75;4965788;28;20051;-65
2021/03/21 04:33:29;;;;;;;10.47;0.80;;;;;;;9.81;31.00;101093.91;4980667;28;20051;-65
2021/03/21 04:36:06;;;;;;;1.07;0.77;;;;;;;9.82;30.88;101111.47;4983775;28;20043;-64
2021/03/21 04:38:55;;;;;;;1.40;1.30;;;;;;;9.78;31.03;101099.13;4978213;28;20046;-64
2021/03/21 04:41:27;;;;;;;1.25;0.85;;;;;;;9.47;31.46;101107.16;4979298;28;20476;-62
2021/03/21 04:44:09;;;;;;;4.00;1.03;;;;;;;9.64;31.26;101124.66;4979113;28;20050;-62
2021/03/21 04:46:48;;;;;;;4.33;1.00;;;;;;;9.80;31.12;101135.97;4977062;28;20057;-63
2021/03/21 04:49:19;;;;;;;1.00;0.80;;;;;;;9.82;31.12;101131.84;4986145;28;20043;-64
2021/03/21 04:51:50;;;;;;;1.13;0.63;;;;;;;9.68;31.53;101131.41;4982514;28;20046;-66
2021/03/21 04:54:31;;;;;;;0.93;0.80;;;;;;;9.45;31.86;101137.25;4985698;28;20054;-64
2021/03/21 04:57:06;;;;;;;1.50;1.37;;;;;;;9.28;32.25;101148.44;4977111;28;20042;-62
2021/03/21 04:59:42;;;;;;;0.67;0.67;;;;;;;9.11;32.43;101151.25;4983023;28;20055;-62
2021/03/21 05:02:14;;;;;;;0.80;0.80;;;;;;;9.05;32.71;101149.50;4983899;28;20042;-63
2021/03/21 05:04:58;;;;;;;2.60;0.77;;;;;;;9.04;32.90;101130.25;4979475;28;20073;-63
2021/03/21 05:07:30;;;;;;;1.37;0.90;;;;;;;9.10;32.70;101118.09;4980947;28;20121;-63
2021/03/21 05:10:19;;;;;;;1.37;0.80;;;;;;;9.09;32.78;101149.81;4979363;28;20073;-65
2021/03/21 05:13:29;;;;;;;1.03;0.57;;;;;;;9.12;32.82;101136.22;4981458;28;20061;-64
2021/03/21 05:16:24;;;;;;;3.03;0.90;;;;;;;8.77;33.57;101103.97;4982005;28;20069;-66
2021/03/21 05:19:10;;;;;;;2.17;0.80;;;;;;;8.75;33.68;101128.44;4983835;28;20050;-65
2021/03/21 05:21:57;;;;;;;1.73;0.90;;;;;;;8.78;33.73;101133.47;4977695;28;20113;-62
2021/03/21 05:24:28;;;;;;;1.13;0.80;;;;;;;8.50;34.31;101117.72;4975281;28;20049;-61
2021/03/21 05:27:03;;;;;;;2.27;0.93;;;;;;;8.42;34.55;101134.03;4980898;28;20055;-63
2021/03/21 05:30:00;;;;;;;1.00;0.90;;;;;;;8.42;34.76;101139.59;4977062;28;20050;-62
2021/03/21 05:32:30;;;;;;;1.20;1.00;;;;;;;8.38;34.89;101138.41;4985003;28;20050;-62
2021/03/21 05:34:58;;;;;;;0.80;0.60;;;;;;;8.43;35.05;101141.25;4974998;28;20101;-65
2021/03/21 05:37:48;;;;;;;1.53;1.00;;;;;;;8.50;35.07;101139.16;4964422;28;20039;-63
2021/03/21 05:40:32;;;;;;;3.07;1.13;;;;;;;8.45;35.33;101139.94;4974204;28;20142;-63
2021/03/21 05:43:36;;;;;;;0.50;0.50;;;;;;;8.46;35.25;101161.09;4973999;28;20050;-63
2021/03/21 05:46:22;;;;;;;1.43;0.80;;;;;;;8.46;35.20;101143.53;4976791;28;20133;-66
2021/03/21 05:49:16;;;;;;;4.90;1.03;;;;;;;8.28;35.60;101139.88;4986587;28;20554;-65
2021/03/21 05:52:05;;;;;;;2.57;1.00;;;;;;;8.34;35.71;101153.84;4977856;28;20392;-65
2021/03/21 05:54:56;;;;;;;0.90;0.70;;;;;;;8.35;35.93;101138.88;4981615;28;20129;-65
2021/03/21 05:57:58;;;;;;;1.07;0.97;;;;;;;8.34;35.90;101149.13;4976387;28;20480;-65
2021/03/21 06:00:40;;;;;;;2.50;0.80;;;;;;;8.43;35.93;101156.03;4925904;28;20535;-65
2021/03/21 06:03:34;;;;;;;1.03;0.70;;;;;;;8.64;35.48;101159.16;4979040;28;20061;-67
2021/03/21 06:06:27;;;;;;;2.70;0.90;;;;;;;8.72;35.58;101162.38;4981146;28;20051;-67
2021/03/21 06:09:30;;;;;;;0.55;0.55;;;;;;;8.63;35.97;101202.84;4979769;28;20047;-67
2021/03/21 06:12:34;;;;;;;0.77;0.67;;;;;;;8.68;36.09;101174.25;4980706;28;20459;-66
2021/03/21 06:15:38;;;;;;;0.80;0.70;;;;;;;8.56;36.52;101173.50;4976906;28;20381;-67
2021/03/21 06:18:20;;;;;;;2.83;0.50;;;;;;;8.70;36.14;101183.22;4981021;28;20566;-67
2021/03/21 06:21:20;;;;;;;0.60;0.60;;;;;;;8.74;36.14;101167.66;4985264;28;20077;-67
2021/03/21 06:24:08;;;;;;;3.60;1.40;;;;;;;8.55;36.73;101178.22;4981829;28;20138;-67
2021/03/21 06:26:44;;;;;;;1.40;1.10;;;;;;;8.45;36.45;101158.56;4981111;28;20463;-65
2021/03/21 06:29:50;;;;;;;1.90;1.17;;;;;;;8.26;36.74;101150.41;4983250;28;20101;-65
2021/03/21 06:32:38;;;;;;;3.47;1.17;;;;;;;8.56;36.66;101184.63;4960120;28;20047;-67
2021/03/21 06:35:37;;;;;;;1.00;0.67;;;;;;;8.66;36.46;101179.25;4979410;28;20074;-65
2021/03/21 06:38:56;;;;;;;4.57;1.50;;;;;;;8.60;36.79;101192.22;4987398;28;20373;-65
2021/03/21 06:41:39;;;;;;;1.70;1.07;;;;;;;8.49;36.93;101176.44;4910338;29;20059;-62
2021/03/21 06:44:27;;;;;;;4.73;1.40;;;;;;;8.49;37.02;101204.28;4971861;28;20503;-63
2021/03/21 06:47:28;;;;;;;0.67;0.67;;;;;;;8.79;36.32;101190.06;4975931;28;20047;-62
2021/03/21 06:50:31;;;;;;;1.53;0.97;;;;;;;8.58;36.96;101200.00;4977924;28;20374;-61
2021/03/21 06:53:22;;;;;;;2.03;1.33;;;;;;;8.48;37.23;101186.75;4972789;28;20459;-62
2021/03/21 06:55:58;;;;;;;1.63;1.20;;;;;;;8.69;37.08;101199.06;4983832;28;20522;-63
2021/03/21 06:59:01;;;;;;;0.50;0.50;;;;;;;8.69;37.06;101196.28;4973470;28;20129;-61
2021/03/21 07:01:47;;;;;;;0.80;0.70;;;;;;;8.65;37.22;101169.19;4929318;29;20044;-62
2021/03/21 07:04:54;;;;;;;0.67;0.63;;;;;;;8.56;37.59;101188.25;4974738;28;20058;-65
2021/03/21 07:08:06;;;;;;;0.80;0.73;;;;;;;8.71;37.58;101182.94;4986548;28;20049;-65
2021/03/21 07:10:53;;;;;;;1.30;0.90;;;;;;;8.80;37.70;101218.75;4985689;28;20046;-73
2021/03/21 07:13:44;;;;;;;0.93;0.73;;;;;;;8.83;37.54;101190.38;4982560;28;20057;-63
2021/03/21 07:16:18;;;;;;;1.20;1.02;;;;;;;8.92;37.67;101206.44;4965399;28;20062;-65
2021/03/21 07:19:22;;;;;;;3.70;1.53;;;;;;;8.96;37.58;101196.47;4967471;28;20496;-63
2021/03/21 07:22:28;;;;;;;9.20;2.00;;;;;;;9.14;37.24;101209.25;4972602;28;20050;-62
2021/03/21 07:25:35;;;;;;;7.80;2.20;;;;;;;9.15;36.92;101233.25;4982557;28;20050;-62
2021/03/21 07:28:42;;;;;;;2.97;1.50;;;;;;;9.28;36.82;101220.91;4985468;28;20060;-69
2021/03/21 07:31:37;;;;;;;1.70;1.53;;;;;;;9.46;36.28;101234.53;4986358;28;20054;-60
2021/03/21 07:34:41;;;;;;;5.67;1.27;;;;;;;9.62;36.32;101220.84;4983206;28;20060;-59
2021/03/21 07:37:28;;;;;;;2.27;1.57;;;;;;;10.05;35.73;101213.53;4988239;28;20140;-62
2021/03/21 07:39:58;;;;;;;1.90;1.50;;;;;;;10.34;35.28;101233.75;4983086;28;20125;-58
2021/03/21 07:42:27;;;;;;;1.77;0.90;;;;;;;10.52;34.96;101227.78;4986292;28;20415;-59
2021/03/21 07:45:34;;;;;;;1.92;1.42;;;;;;;10.74;34.13;101221.31;4988751;28;20053;-59
2021/03/21 07:48:25;;;;;;;3.93;1.90;;;;;;;11.30;33.29;101227.34;4957607;28;20129;-59
2021/03/21 07:51:16;;;;;;;1.80;1.20;;;;;;;11.54;33.03;101238.97;4981988;28;20050;-59
2021/03/21 07:53:55;;;;;;;3.30;1.70;;;;;;;11.46;32.92;101240.31;4984126;28;20500;-59
2021/03/21 07:56:40;;;;;;;3.07;1.20;;;;;;;11.77;32.73;101209.72;4984150;28;20134;-58
2021/03/21 07:59:19;;;;;;;1.73;1.27;;;;;;;12.49;31.99;101236.03;4990172;28;20050;-57
2021/03/21 08:01:46;;;;;;;2.67;1.73;;;;;;;12.36;31.86;101247.75;4985691;28;20050;-58
2021/03/21 08:04:35;;;;;;;1.17;0.97;;;;;;;12.08;31.93;101225.53;4986189;28;20049;-57
2021/03/21 08:07:33;;;;;;;1.20;1.10;;;;;;;12.42;31.82;101222.28;4982482;28;20046;-58
2021/03/21 08:10:23;;;;;;;3.03;1.00;;;;;;;12.40;31.97;101210.50;4986680;28;20423;-59
2021/03/21 08:13:09;;;;;;;3.03;1.43;;;;;;;12.76;31.64;101207.78;4985698;28;20137;-57
2021/03/21 08:15:40;;;;;;;1.93;1.50;;;;;;;12.64;31.61;101226.81;4984032;28;20046;-58
2021/03/21 08:18:20;;;;;;;3.47;1.43;;;;;;;12.49;31.45;101225.66;4975830;28;20504;-59
2021/03/21 08:20:53;;;;;;;2.50;1.90;;;;;;;12.43;31.52;101221.16;4983624;28;20050;-59
2021/03/21 08:23:24;;;;;;;1.10;1.00;;;;;;;12.43;31.93;101226.75;4984142;28;20047;-56
2021/03/21 08:26:01;;;;;;;2.45;1.42;;;;;;;12.41;32.06;101223.41;4982563;28;20499;-58
2021/03/21 08:28:37;;;;;;;3.13;1.53;;;;;;;12.56;32.12;101223.44;4966928;28;20042;-57
2021/03/21 08:31:14;;;;;;;1.43;1.10;;;;;;;12.82;31.60;101223.47;4986825;28;20049;-58
2021/03/21 08:33:43;;;;;;;1.63;1.20;;;;;;;12.82;31.27;101178.63;4980457;28;20142;-59
2021/03/21 08:36:28;;;;;;;10.23;1.93;;;;;;;13.07;31.07;101210.56;4984010;28;20046;-58
2021/03/21 08:39:13;;;;;;;5.57;2.47;;;;;;;13.29;31.07;101216.75;4978560;28;20054;-58
2021/03/21 08:41:52;;;;;;;3.27;2.10;;;;;;;13.58;31.18;101242.22;4987360;28;20407;-57
2021/03/21 08:44:51;;;;;;;3.88;1.85;;;;;;;14.06;30.47;101231.41;4980812;28;20137;-54
2021/03/21 08:47:21;;;;;;;4.32;1.92;;;;;;;14.27;30.01;101236.94;4947825;28;20039;-57
2021/03/21 08:49:52;;;;;;;2.05;1.40;;;;;;;14.38;30.13;101242.19;4978902;28;20057;-58
2021/03/21 08:52:49;;;;;;;3.83;1.43;;;;;;;14.97;29.78;101239.59;4980498;28;20050;-59
2021/03/21 08:55:28;;;;;;;4.80;1.40;;;;;;;15.24;28.93;101251.16;4975846;28;20127;-60
2021/03/21 08:57:54;;;;;;;2.17;1.40;;;;;;;15.65;28.75;101251.59;4975932;28;20047;-58
2021/03/21 09:00:27;;;;;;;3.15;1.40;;;;;;;15.99;29.56;101258.31;4980080;28;20050;-59
2021/03/21 09:02:54;;;;;;;2.10;0.98;;;;;;;16.48;28.43;101263.59;4975998;28;20047;-59
2021/03/21 09:05:23;;;;;;;3.80;2.17;;;;;;;16.72;27.49;101252.25;4975005;28;20106;-59
2021/03/21 09:07:49;;;;;;;3.70;1.80;;;;;;;17.47;27.56;101248.50;4974929;28;20061;-58
2021/03/21 09:10:29;;;;;;;4.03;2.10;;;;;;;18.26;26.81;101261.69;4975277;28;20050;-58
2021/03/21 09:13:06;;;;;;;2.50;1.53;;;;;;;18.76;26.13;101280.69;4974738;28;20507;-59
2021/03/21 09:15:35;;;;;;;2.60;2.10;;;;;;;19.27;25.96;101279.47;4975076;28;20077;-58
2021/03/21 09:18:05;;;;;;;2.57;1.70;;;;;;;19.02;25.49;101286.59;4976150;28;20142;-60
2021/03/21 09:20:36;;;;;;;4.18;2.30;;;;;;;19.18;25.03;101287.91;4973963;28;20047;-59
2021/03/21 09:23:25;;;;;;;2.95;2.00;;;;;;;19.53;25.07;101286.16;4978799;28;20050;-58
2021/03/21 09:25:54;;;;;;;;;;;;;;;19.31;24.27;101280.50;4979702;28;20054;-58
2021/03/21 09:28:25;;;;;;;0.90;0.88;;;;;;;19.32;24.65;101277.34;4974289;28;20301;-58
2021/03/21 09:30:54;;;;;;;4.03;1.83;;;;;;;19.86;24.58;101269.72;4974870;28;20407;-58
2021/03/21 09:33:29;;;;;;;4.28;2.00;;;;;;;20.47;23.97;101263.41;4974609;28;20488;-59
2021/03/21 09:36:01;;;;;;;2.22;1.67;;;;;;;21.08;23.77;101280.53;4974981;28;20046;-61
2021/03/21 09:38:34;;;;;;;6.85;2.92;;;;;;;21.08;23.31;101270.00;4978566;28;20043;-58
2021/03/21 09:41:11;;;;;;;3.65;2.17;;;;;;;20.88;23.10;101260.16;4975176;28;20133;-59
2021/03/21 09:43:40;;;;;;;5.50;2.10;;;;;;;20.59;22.85;101244.59;4974480;28;20047;-59
2021/03/21 09:46:07;;;;;;;7.10;1.60;;;;;;;20.63;22.87;101269.47;4971561;28;20385;-58
2021/03/21 09:48:58;;;;;;;5.10;2.00;;;;;;;20.80;22.89;101266.66;4974196;28;20158;-60
2021/03/21 09:51:36;;;;;;;5.75;2.05;;;;;;;21.01;22.92;101259.16;4974415;28;20102;-58
2021/03/21 09:54:12;;;;;;;3.08;1.38;;;;;;;21.34;23.02;101270.03;4973350;28;20536;-58
2021/03/21 09:56:50;;;;;;;4.10;2.15;;;;;;;21.69;23.20;101262.25;4973941;28;20046;-58
2021/03/21 09:59:26;;;;;;;7.22;2.17;;;;;;;22.57;22.53;101272.09;4974682;28;20137;-58
2021/03/21 10:02:22;;;;;;;5.00;1.77;;;;;;;22.73;21.87;101274.31;4978410;28;20050;-58
2021/03/21 10:05:03;;;;;;;5.28;2.65;;;;;;;22.43;21.65;101269.50;4973841;28;20142;-58
2021/03/21 10:07:39;;;;;;;3.92;1.58;;;;;;;22.41;22.15;101271.84;4974494;28;20070;-58
2021/03/21 10:10:08;;;;;;;3.83;1.92;;;;;;;22.56;21.78;101278.13;4975221;28;20130;-59
2021/03/21 10:12:41;;;;;;;4.53;2.08;;;;;;;22.68;21.57;101258.28;4974027;28;20046;-59
2021/03/21 10:15:12;;;;;;;3.80;1.90;;;;;;;22.72;21.40;101264.94;4973753;28;20058;-60
2021/03/21 10:17:46;;;;;;;6.38;1.52;;;;;;;22.33;20.86;101260.53;4970885;28;20074;-59
2021/03/21 10:20:15;;;;;;;2.47;1.63;;;;;;;22.30;21.03;101264.88;4974399;28;20114;-59
2021/03/21 10:22:48;;;;;;;4.15;1.50;;;;;;;22.20;20.94;101262.44;4974121;28;20058;-58
2021/03/21 10:25:15;;;;;;;1.75;1.60;;;;;;;21.59;21.72;101265.47;4975002;28;20558;-58
2021/03/21 10:27:47;;;;;;;4.72;2.13;;;;;;;21.39;21.48;101261.31;4974356;28;20069;-59
2021/03/21 10:30:29;;;;;;;5.50;2.38;;;;;;;22.08;21.55;101263.09;4974127;28;20564;-58
2021/03/21 10:32:59;;;;;;;2.80;1.80;;;;;;;23.03;21.34;101252.34;4973543;28;20665;-59
2021/03/21 10:35:33;;;;;;;8.00;2.22;;;;;;;23.41;20.96;101250.13;4972634;28;20467;-60
2021/03/21 10:38:10;;;;;;;3.80;1.70;;;;;;;23.68;20.46;101241.34;4973182;28;20050;-58
2021/03/21 10:40:41;;;;;;;5.60;2.03;;;;;;;23.91;20.47;101236.88;4973340;28;20047;-58
2021/03/21 10:43:19;;;;;;;3.47;1.95;;;;;;;24.49;20.34;101234.75;4979027;28;20054;-58
2021/03/21 10:45:49;;;;;;;2.38;1.83;;;;;;;24.19;20.11;101219.88;4975805;28;20057;-59
2021/03/21 10:48:15;;;;;;;3.38;2.08;;;;;;;23.91;19.74;101250.31;4982720;28;20074;-59
2021/03/21 10:51:04;;;;;;;2.20;1.50;;;;;;;23.00;20.15;101244.50;4981000;28;20091;-59
2021/03/21 10:53:40;;;;;;;6.50;2.35;;;;;;;22.60;20.28;101219.34;4986693;28;20050;-57
2021/03/21 10:56:20;;;;;;;6.65;1.40;;;;;;;22.52;20.29;101231.59;4977213;28;20054;-59
2021/03/21 10:58:53;;;;;;;2.85;1.85;;;;;;;22.20;20.08;101236.81;4982782;28;20058;-58
2021/03/21 11:01:22;;;;;;;1.45;1.17;;;;;;;21.77;20.73;101237.81;4996412;28;20052;-59
2021/03/21 11:03:55;;;;;;;7.32;1.75;;;;;;;21.14;20.47;101240.28;4995577;28;20053;-59
2021/03/21 11:06:23;;;;;;;2.88;1.80;;;;;;;21.01;21.01;101222.22;4999619;28;20491;-58
2021/03/21 11:08:53;;;;;;;2.97;1.60;;;;;;;21.11;21.31;101212.53;5005126;28;20090;-59
2021/03/21 11:11:31;;;;;;;2.17;1.67;;;;;;;21.41;21.23;101210.69;5008545;28;20203;-59
2021/03/21 11:14:15;;;;;;;6.10;2.33;;;;;;;22.11;21.02;101216.09;4995725;28;20041;-59
2021/03/21 11:16:53;;;;;;;5.15;2.20;;;;;;;22.60;20.69;101205.09;5002704;28;20168;-58
2021/03/21 11:19:41;;;;;;;1.80;1.30;;;;;;;22.77;20.21;101219.22;4986424;28;20426;-59
2021/03/21 11:22:22;;;;;;;3.20;1.90;;;;;;;22.16;20.24;101196.03;5014563;28;20046;-57
2021/03/21 11:24:49;;;;;;;3.38;1.88;;;;;;;22.10;20.77;101201.03;4999139;28;20042;-58
2021/03/21 11:27:27;;;;;;;2.45;1.88;;;;;;;22.91;20.60;101204.69;4996127;28;20129;-60
2021/03/21 11:29:53;;;;;;;4.40;1.90;;;;;;;22.91;19.78;101202.66;5005519;28;20090;-60
2021/03/21 11:32:28;;;;;;;2.63;1.73;;;;;;;22.97;19.85;101219.56;4998160;28;20435;-59
2021/03/21 11:35:05;;;;;;;4.57;1.70;;;;;;;22.94;19.80;101199.16;5001932;28;20078;-58
2021/03/21 11:37:39;;;;;;;2.47;1.57;;;;;;;23.46;19.44;101194.09;4997519;28;20049;-58
2021/03/21 11:40:18;;;;;;;2.88;1.88;;;;;;;23.77;19.57;101182.19;4995005;28;20054;-59
2021/03/21 11:42:51;;;;;;;10.75;3.67;;;;;;;23.80;19.81;101190.03;5008090;28;20104;-58
2021/03/21 11:45:20;;;;;;;13.88;3.55;;;;;;;24.20;19.87;101187.28;4996540;28;20065;-59
2021/03/21 11:48:09;;;;;;;3.85;2.33;;;;;;;24.60;19.10;101189.41;4996632;28;20124;-58
2021/03/21 11:50:42;;;;;;;5.50;2.30;;;;;;;25.36;18.57;101169.56;5008827;28;20140;-60
2021/03/21 11:53:17;;;;;;;3.75;2.28;;;;;;;25.95;18.20;101134.38;5009577;28;20576;-59
2021/03/21 11:55:53;;;;;;;6.78;2.53;;;;;;;26.38;17.61;101158.28;5005164;28;20541;-62
2021/03/21 11:58:48;;;;;;;3.67;1.88;;;;;;;26.92;17.46;101178.34;5007251;28;20340;-57
2021/03/21 12:01:20;;;;;;;4.07;2.50;;;;;;;27.55;16.80;101159.09;5002251;28;20046;-58
2021/03/21 12:04:04;;;;;;;4.57;2.50;;;;;;;27.72;15.89;101175.81;5009296;28;20061;-59
2021/03/21 12:06:46;;;;;;;5.40;2.33;;;;;;;27.63;16.36;101172.38;5010334;28;20042;-59
2021/03/21 12:09:36;;;;;;;4.43;2.35;;;;;;;28.00;16.81;101169.78;5011769;28;20103;-59
2021/03/21 12:12:24;;;;;;;5.63;2.10;;;;;;;28.88;15.93;101159.97;5014122;28;20060;-63
2021/03/21 12:14:51;;;;;;;4.38;2.50;;;;;;;29.87;15.24;101155.75;5010223;28;20103;-58
2021/03/21 12:17:26;;;;;;;4.82;2.28;;;;;;;30.30;14.99;101153.22;5011607;28;20129;-58
2021/03/21 12:19:55;;;;;;;3.95;2.45;;;;;;;30.13;14.26;101157.59;4999254;28;20050;-59
2021/03/21 12:22:41;;;;;;;3.25;2.45;;;;;;;30.19;14.17;101151.09;5001671;28;20125;-60
2021/03/21 12:25:22;;;;;;;4.20;2.00;;;;;;;30.12;14.22;101150.16;5006891;28;20042;-58